createdAt,value
2022-12-23T00:00:20.625Z,24.50
2022-12-23T00:02:56.912Z,24.50
2022-12-23T00:05:40.040Z,24.50
2022-12-23T00:08:17.604Z,24.50
2022-12-23T00:10:55.045Z,24.50
2022-12-23T00:13:47.151Z,24.60
2022-12-23T00:16:23.226Z,24.60
2022-12-23T00:18:59.457Z,24.70
2022-12-23T00:21:35.119Z,24.80
2022-12-23T00:24:13.595Z,24.90
2022-12-23T00:26:50.289Z,25.00
2022-12-23T00:29:25.857Z,25.10
2022-12-23T00:32:02.461Z,25.10
2022-12-23T00:34:38.663Z,24.90
2022-12-23T00:37:14.896Z,24.90
2022-12-23T00:40:19.772Z,24.90
2022-12-23T00:42:58.649Z,24.90
2022-12-23T00:45:34.484Z,24.80
2022-12-23T00:48:26.469Z,24.80
2022-12-23T00:51:01.971Z,24.70
2022-12-23T00:53:37.830Z,24.60
2022-12-23T00:56:15.715Z,24.60
2022-12-23T00:58:52.675Z,24.60
2022-12-23T01:01:40.686Z,24.70
2022-12-23T01:04:34.065Z,24.60
2022-12-23T01:07:10.619Z,24.70
2022-12-23T01:09:46.479Z,24.70
2022-12-23T01:12:23.968Z,24.60
2022-12-23T01:15:00.301Z,24.60
2022-12-23T01:17:36.695Z,24.70
2022-12-23T01:20:13.727Z,24.80
2022-12-23T01:22:49.113Z,24.80
2022-12-23T01:25:24.728Z,24.90
2022-12-23T01:28:02.915Z,25.00
2022-12-23T01:30:39.653Z,25.10
2022-12-23T01:33:15.026Z,25.00
2022-12-23T01:35:50.765Z,25.00
2022-12-23T01:38:26.736Z,24.80
2022-12-23T01:41:02.876Z,24.80
2022-12-23T01:43:53.507Z,24.80
2022-12-23T01:46:29.564Z,24.90
2022-12-23T01:49:05.713Z,24.90
2022-12-23T01:51:42.359Z,25.00
2022-12-23T01:54:17.803Z,25.00
2022-12-23T01:56:53.632Z,25.00
2022-12-23T01:59:47.663Z,24.90
2022-12-23T02:02:40.601Z,24.90
2022-12-23T02:05:16.671Z,24.70
2022-12-23T02:08:09.051Z,24.50
2022-12-23T02:11:01.711Z,24.50
2022-12-23T02:14:06.184Z,24.50
2022-12-23T02:16:49.025Z,24.50
2022-12-23T02:19:45.061Z,24.30
2022-12-23T02:22:36.389Z,24.30
2022-12-23T02:25:32.152Z,24.30
2022-12-23T02:28:40.018Z,24.40
2022-12-23T02:31:25.344Z,24.50
2022-12-23T02:34:07.443Z,24.70
2022-12-23T02:36:50.727Z,24.80
2022-12-23T02:42:11.814Z,24.50
2022-12-23T02:44:52.998Z,24.60
2022-12-23T02:47:36.426Z,24.60
2022-12-23T02:50:18.158Z,24.60
2022-12-23T02:52:56.723Z,24.50
2022-12-23T02:58:16.618Z,24.20
2022-12-23T03:00:53.435Z,24.30
2022-12-23T03:03:32.752Z,24.30
2022-12-23T03:06:22.277Z,24.30
2022-12-23T03:09:01.797Z,24.50
2022-12-23T03:11:46.397Z,24.50
2022-12-23T03:14:48.112Z,24.50
2022-12-23T03:17:42.260Z,24.60
2022-12-23T03:20:30.963Z,24.70
2022-12-23T03:23:17.811Z,24.70
2022-12-23T03:26:02.829Z,24.50
2022-12-23T03:28:44.036Z,24.40
2022-12-23T03:31:27.513Z,24.40
2022-12-23T03:34:08.940Z,24.60
2022-12-23T03:36:50.099Z,24.60
2022-12-23T03:39:29.137Z,24.70
2022-12-23T03:42:08.516Z,24.90
2022-12-23T03:45:10.565Z,24.90
2022-12-23T03:47:48.485Z,25.00
2022-12-23T03:50:27.150Z,24.90
2022-12-23T03:53:10.261Z,24.80
2022-12-23T03:55:50.793Z,24.80
2022-12-23T03:58:38.625Z,24.80
2022-12-23T04:01:20.483Z,24.90
2022-12-23T04:04:05.202Z,24.90
2022-12-23T04:06:46.260Z,24.80
2022-12-23T04:09:26.211Z,24.80
2022-12-23T04:12:03.126Z,24.80
2022-12-23T04:14:40.480Z,24.90
2022-12-23T04:17:16.534Z,24.90
2022-12-23T04:19:53.286Z,24.90
2022-12-23T04:22:29.225Z,24.80
2022-12-23T04:25:07.676Z,24.80
2022-12-23T04:27:43.624Z,24.70
2022-12-23T04:30:20.294Z,24.70
2022-12-23T04:32:56.290Z,24.70
2022-12-23T04:35:32.530Z,24.70
2022-12-23T04:38:13.629Z,24.60
2022-12-23T04:40:53.711Z,24.70
2022-12-23T04:43:29.860Z,24.70
2022-12-23T04:46:05.830Z,24.70
2022-12-23T04:48:42.656Z,24.80
2022-12-23T04:51:18.963Z,24.90
2022-12-23T04:53:55.026Z,24.90
2022-12-23T04:56:32.212Z,24.80
2022-12-23T04:59:08.435Z,24.90
2022-12-23T05:01:44.107Z,24.80
2022-12-23T05:04:20.330Z,24.70
2022-12-23T05:06:56.332Z,24.80
2022-12-23T05:09:33.116Z,24.80
2022-12-23T05:12:10.468Z,24.90
2022-12-23T05:14:46.433Z,24.80
2022-12-23T05:17:21.688Z,24.80
2022-12-23T05:19:57.853Z,24.80
2022-12-23T05:22:34.147Z,24.90
2022-12-23T05:25:11.012Z,24.90
2022-12-23T05:27:48.335Z,24.90
2022-12-23T05:30:24.675Z,24.80
2022-12-23T05:40:53.572Z,24.70
2022-12-23T05:43:32.887Z,24.80
2022-12-23T05:46:11.068Z,24.80
2022-12-23T05:48:46.237Z,24.80
2022-12-23T06:33:00.750Z,25.40
2022-12-23T16:32:35.969Z,21.50
2022-12-23T16:35:17.504Z,21.50
2022-12-23T16:37:55.643Z,21.40
2022-12-23T16:40:31.009Z,21.40
2022-12-23T16:43:07.297Z,21.30
2022-12-23T16:45:43.265Z,21.30
2022-12-23T16:48:28.749Z,21.30
2022-12-23T16:51:04.666Z,21.30
2022-12-23T16:53:42.987Z,21.20
2022-12-23T16:56:19.479Z,21.30
2022-12-23T16:58:55.414Z,21.30
2022-12-23T17:01:32.784Z,21.30
2022-12-23T17:04:09.808Z,21.20
2022-12-23T17:06:48.040Z,21.20
2022-12-23T17:09:25.329Z,21.20
2022-12-23T17:12:00.700Z,21.10
2022-12-23T17:14:37.197Z,21.20
2022-12-23T17:17:19.535Z,21.20
2022-12-23T17:19:57.802Z,21.10
2022-12-23T17:22:35.633Z,21.10
2022-12-23T17:25:18.864Z,21.10
2022-12-23T17:27:58.000Z,21.10
2022-12-23T17:30:34.673Z,21.10
2022-12-23T17:33:10.308Z,21.10
2022-12-23T17:35:47.199Z,21.10
2022-12-23T17:38:23.787Z,21.00
2022-12-23T17:41:02.463Z,21.10
2022-12-23T17:43:37.938Z,21.10
2022-12-23T17:46:17.905Z,21.00
2022-12-23T17:48:53.803Z,21.00
2022-12-23T17:51:30.719Z,20.90
2022-12-23T17:54:08.155Z,21.20
2022-12-23T17:56:46.395Z,21.00
2022-12-23T17:59:22.077Z,21.00
2022-12-23T18:01:57.755Z,21.00
2022-12-23T18:04:33.055Z,21.00
2022-12-23T18:07:11.245Z,21.00
2022-12-23T18:09:46.704Z,21.00
2022-12-23T18:12:35.248Z,21.00
2022-12-23T18:15:16.923Z,20.90
2022-12-23T18:17:53.323Z,20.90
2022-12-23T18:20:30.465Z,20.90
2022-12-23T18:23:06.979Z,20.90
2022-12-23T18:25:43.088Z,20.80
2022-12-23T18:28:21.045Z,20.90
2022-12-23T18:30:59.500Z,20.90
2022-12-23T18:33:34.887Z,20.90
2022-12-23T18:36:11.286Z,20.90
2022-12-23T18:38:48.834Z,20.90
2022-12-23T18:41:25.022Z,20.90
2022-12-23T18:44:02.631Z,20.90
2022-12-23T18:46:38.435Z,20.90
2022-12-23T18:49:14.760Z,20.80
2022-12-23T18:51:50.629Z,20.80
2022-12-23T18:54:26.519Z,20.80
2022-12-23T18:57:03.993Z,20.80
2022-12-23T18:59:41.799Z,20.80
2022-12-23T19:02:18.664Z,20.80
2022-12-23T19:04:54.152Z,20.80
2022-12-23T19:07:29.877Z,20.80
2022-12-23T19:10:09.705Z,20.80
2022-12-23T19:12:45.162Z,20.90
2022-12-23T19:15:23.143Z,21.00
2022-12-23T19:17:58.990Z,21.10
2022-12-23T19:20:36.310Z,21.20
2022-12-23T19:23:12.092Z,21.20
2022-12-23T19:25:55.028Z,21.40
2022-12-23T19:28:31.059Z,21.50
2022-12-23T19:31:13.545Z,21.60
2022-12-23T19:33:51.222Z,21.60
2022-12-23T19:36:27.447Z,21.70
2022-12-23T19:39:03.114Z,21.80
2022-12-23T19:41:39.880Z,21.90
2022-12-23T19:44:15.453Z,22.00
2022-12-23T21:36:51.214Z,24.10
2022-12-23T21:39:29.007Z,24.30
2022-12-23T21:42:04.422Z,24.20
2022-12-23T21:44:40.294Z,24.30
2022-12-23T21:47:20.589Z,24.30
2022-12-23T21:49:56.335Z,24.30
2022-12-23T21:52:33.867Z,24.40
2022-12-23T21:55:09.579Z,24.40
2022-12-23T21:57:45.867Z,24.40
2022-12-23T22:00:26.957Z,24.40
2022-12-23T22:13:31.861Z,24.60
2022-12-23T22:16:07.646Z,24.70
2022-12-23T22:18:44.898Z,24.70
2022-12-23T22:21:22.219Z,24.80
2022-12-23T22:24:00.310Z,24.90
2022-12-23T22:26:37.373Z,24.90
2022-12-23T22:29:13.490Z,25.10
2022-12-23T22:31:51.377Z,25.10
2022-12-23T22:34:27.662Z,25.00
2022-12-23T22:37:03.271Z,25.10
2022-12-23T22:39:41.711Z,25.20
2022-12-23T22:42:17.486Z,25.40
2022-12-23T22:44:53.059Z,25.40
2022-12-23T22:47:28.777Z,25.50
2022-12-23T22:50:05.782Z,25.50
2022-12-23T22:52:41.685Z,25.60
2022-12-23T22:55:19.141Z,25.90
2022-12-23T22:57:54.809Z,25.80
2022-12-23T23:00:31.472Z,25.80
2022-12-23T23:03:07.785Z,25.80
2022-12-23T23:05:43.840Z,25.80
2022-12-23T23:08:19.709Z,25.80
2022-12-23T23:10:58.205Z,25.80
2022-12-23T23:13:36.178Z,25.80
2022-12-23T23:16:11.856Z,25.90
2022-12-23T23:18:47.581Z,26.00
2022-12-23T23:21:24.877Z,26.00
2022-12-23T23:24:00.528Z,26.00
2022-12-23T23:26:37.915Z,26.00
2022-12-23T23:29:13.745Z,26.00
2022-12-23T23:31:49.791Z,25.90
2022-12-23T23:34:25.479Z,25.80
2022-12-23T23:37:01.495Z,25.70
2022-12-23T23:39:37.208Z,25.60
2022-12-23T23:42:18.470Z,25.40
2022-12-23T23:44:54.082Z,25.40
2022-12-23T23:47:29.579Z,25.40
2022-12-23T23:50:05.338Z,25.60
2022-12-23T23:52:42.245Z,25.40
2022-12-23T23:55:17.558Z,25.30
2022-12-23T23:57:55.137Z,25.20
